createdAt,value
2022-10-05T00:00:18.974Z,65.84
2022-10-05T00:01:19.024Z,63.54
2022-10-05T00:02:18.965Z,63.21
2022-10-05T00:03:18.950Z,62.34
2022-10-05T00:04:18.942Z,66.34
2022-10-05T00:05:19.042Z,63.18
2022-10-05T00:06:18.943Z,62.00
2022-10-05T00:07:18.924Z,62.76
2022-10-05T00:08:18.931Z,67.33
2022-10-05T00:09:18.910Z,62.31
2022-10-05T00:10:18.924Z,64.28
2022-10-05T00:11:18.926Z,61.03
2022-10-05T00:12:18.881Z,60.08
2022-10-05T00:13:18.886Z,63.04
2022-10-05T00:14:18.862Z,60.50
2022-10-05T00:15:18.885Z,63.49
2022-10-05T00:16:18.892Z,62.51
2022-10-05T00:17:18.831Z,61.27
2022-10-05T00:18:18.829Z,64.27
2022-10-05T00:19:18.812Z,64.23
2022-10-05T00:20:18.841Z,63.70
2022-10-05T00:21:18.800Z,67.82
2022-10-05T00:22:18.829Z,62.60
2022-10-05T00:23:18.809Z,61.78
2022-10-05T00:24:18.793Z,63.02
2022-10-05T00:25:18.777Z,61.42
2022-10-05T00:26:18.784Z,60.42
2022-10-05T00:27:18.755Z,62.51
2022-10-05T00:28:18.803Z,65.88
2022-10-05T00:29:18.761Z,64.68
2022-10-05T00:30:18.732Z,65.86
2022-10-05T00:31:18.857Z,61.92
2022-10-05T00:32:18.707Z,62.62
2022-10-05T00:33:18.698Z,63.72
2022-10-05T00:34:18.685Z,59.91
2022-10-05T00:35:18.694Z,64.55
2022-10-05T00:36:18.688Z,60.86
2022-10-05T00:37:18.696Z,63.62
2022-10-05T00:38:18.701Z,64.68
2022-10-05T00:39:18.641Z,65.83
2022-10-05T00:40:18.653Z,64.35
2022-10-05T00:41:18.658Z,66.02
2022-10-05T00:42:18.614Z,62.34
2022-10-05T00:43:18.652Z,65.76
2022-10-05T00:44:18.609Z,64.45
2022-10-05T00:45:18.601Z,63.01
2022-10-05T00:46:18.677Z,62.84
2022-10-05T00:47:18.589Z,63.77
2022-10-05T00:48:18.572Z,62.20
2022-10-05T00:49:18.588Z,62.53
2022-10-05T00:50:18.558Z,64.68
2022-10-05T00:51:18.553Z,64.81
2022-10-05T00:52:18.625Z,64.73
2022-10-05T00:53:18.547Z,63.01
2022-10-05T00:54:18.567Z,60.44
2022-10-05T00:55:18.509Z,60.86
2022-10-05T00:56:18.532Z,63.40
2022-10-05T00:57:18.501Z,67.84
2022-10-05T00:58:18.491Z,66.71
2022-10-05T00:59:18.508Z,61.24
2022-10-05T01:00:18.468Z,62.39
2022-10-05T01:01:18.522Z,62.27
2022-10-05T01:02:18.507Z,59.94
2022-10-05T01:03:18.446Z,64.02
2022-10-05T01:04:18.436Z,62.30
2022-10-05T01:05:18.453Z,63.31
2022-10-05T01:06:18.423Z,64.68
2022-10-05T01:07:18.409Z,64.12
2022-10-05T01:08:18.410Z,65.82
2022-10-05T01:09:18.396Z,61.62
2022-10-05T01:10:18.413Z,62.70
2022-10-05T01:11:18.424Z,61.37
2022-10-05T01:12:18.374Z,65.66
2022-10-05T01:13:18.355Z,59.75
2022-10-05T01:14:18.357Z,63.31
2022-10-05T01:15:18.341Z,61.08
2022-10-05T01:16:18.367Z,65.65
2022-10-05T01:17:18.375Z,63.22
2022-10-05T01:18:18.331Z,65.91
2022-10-05T01:19:18.310Z,64.48
2022-10-05T01:20:18.328Z,62.24
2022-10-05T01:21:18.317Z,66.16
2022-10-05T01:22:18.303Z,60.76
2022-10-05T01:23:18.303Z,66.56
2022-10-05T01:24:18.264Z,62.76
2022-10-05T01:25:18.856Z,64.33
2022-10-05T01:26:18.249Z,62.02
2022-10-05T01:27:18.235Z,63.88
2022-10-05T01:28:18.300Z,63.67
2022-10-05T01:29:18.236Z,63.43
2022-10-05T01:30:18.200Z,60.88
2022-10-05T01:31:18.210Z,61.66
2022-10-05T01:32:18.195Z,63.71
2022-10-05T01:33:18.181Z,61.93
2022-10-05T01:34:18.190Z,61.10
2022-10-05T01:35:18.193Z,63.93
2022-10-05T01:36:18.163Z,64.55
2022-10-05T01:37:18.163Z,61.30
2022-10-05T01:38:18.136Z,60.55
2022-10-05T01:39:18.125Z,64.62
2022-10-05T01:40:18.120Z,61.50
2022-10-05T01:41:18.159Z,65.35
2022-10-05T01:42:18.114Z,65.16
2022-10-05T01:43:18.143Z,65.33
2022-10-05T01:44:18.085Z,66.03
2022-10-05T01:45:18.083Z,62.76
2022-10-05T01:46:18.154Z,62.22
2022-10-05T01:47:18.070Z,66.65
2022-10-05T01:48:18.069Z,62.80
2022-10-05T01:49:18.073Z,64.37
2022-10-05T01:50:18.036Z,64.75
2022-10-05T01:51:18.019Z,58.35
2022-10-05T01:52:18.035Z,61.93
2022-10-05T01:53:18.012Z,61.61
2022-10-05T01:54:18.000Z,65.96
2022-10-05T01:55:18.012Z,62.68
2022-10-05T01:56:17.992Z,57.75
2022-10-05T01:57:17.994Z,65.51
2022-10-05T01:58:17.975Z,65.33
2022-10-05T01:59:17.960Z,62.46
2022-10-05T02:00:17.945Z,67.23
2022-10-05T02:01:18.091Z,63.46
2022-10-05T02:02:17.986Z,61.53
2022-10-05T02:03:17.923Z,60.98
2022-10-05T02:04:37.271Z,64.25
2022-10-05T02:05:18.905Z,63.05
2022-10-05T02:06:17.890Z,63.48
2022-10-05T02:07:17.903Z,64.65
2022-10-05T02:08:17.871Z,64.55
2022-10-05T02:09:17.859Z,63.90
2022-10-05T02:10:17.898Z,62.07
2022-10-05T02:11:17.857Z,62.03
2022-10-05T02:12:17.833Z,65.65
2022-10-05T02:13:17.866Z,61.92
2022-10-05T02:14:17.832Z,62.79
2022-10-05T02:15:17.813Z,64.57
2022-10-05T02:16:17.881Z,66.14
2022-10-05T02:17:17.794Z,60.43
2022-10-05T02:18:17.793Z,64.49
2022-10-05T02:19:17.799Z,63.84
2022-10-05T02:20:17.769Z,61.72
2022-10-05T02:21:17.762Z,62.61
2022-10-05T02:22:17.761Z,65.54
2022-10-05T02:23:17.745Z,61.95
2022-10-05T02:24:17.728Z,64.40
2022-10-05T02:25:17.749Z,65.62
2022-10-05T02:26:17.731Z,62.35
2022-10-05T02:27:17.703Z,67.06
2022-10-05T02:28:17.767Z,65.03
2022-10-05T02:29:17.693Z,65.45
2022-10-05T02:30:17.691Z,64.28
2022-10-05T02:31:17.713Z,62.86
2022-10-05T02:32:17.894Z,62.93
2022-10-05T02:33:17.727Z,63.15
2022-10-05T02:34:17.650Z,64.28
2022-10-05T02:35:17.643Z,65.36
2022-10-05T02:36:17.664Z,65.30
2022-10-05T02:37:17.611Z,67.84
2022-10-05T02:38:17.612Z,64.80
2022-10-05T02:39:17.600Z,63.85
2022-10-05T02:40:17.583Z,66.62
2022-10-05T02:41:17.594Z,66.35
2022-10-05T02:42:18.444Z,64.76
2022-10-05T02:43:17.571Z,64.45
2022-10-05T02:44:17.561Z,66.54
2022-10-05T02:45:17.561Z,66.17
2022-10-05T02:46:17.598Z,65.32
2022-10-05T02:47:17.538Z,66.56
2022-10-05T02:48:17.596Z,67.68
2022-10-05T02:49:17.544Z,67.63
2022-10-05T02:50:17.516Z,63.90
2022-10-05T02:51:17.495Z,67.16
2022-10-05T02:52:17.498Z,67.57
2022-10-05T02:53:17.507Z,64.60
2022-10-05T02:54:17.483Z,64.62
2022-10-05T02:55:17.491Z,64.35
2022-10-05T02:56:17.469Z,66.09
2022-10-05T02:57:17.455Z,65.68
2022-10-05T02:58:17.451Z,65.30
2022-10-05T02:59:17.455Z,66.89
2022-10-05T03:00:17.464Z,66.86
2022-10-05T03:01:17.544Z,66.28
2022-10-05T03:02:17.556Z,65.15
2022-10-05T03:03:17.408Z,63.79
2022-10-05T03:04:17.402Z,64.76
2022-10-05T03:05:17.444Z,65.42
2022-10-05T03:06:17.375Z,66.12
2022-10-05T03:07:17.402Z,66.78
2022-10-05T03:08:17.358Z,64.88
2022-10-05T03:09:17.357Z,64.68
2022-10-05T03:10:17.370Z,63.97
2022-10-05T03:11:17.385Z,67.72
2022-10-05T03:12:17.341Z,66.78
2022-10-05T03:13:17.342Z,64.09
2022-10-05T03:14:17.316Z,62.75
2022-10-05T03:15:17.309Z,65.40
2022-10-05T03:16:17.390Z,65.84
2022-10-05T03:17:17.345Z,64.24
2022-10-05T03:18:17.281Z,66.70
2022-10-05T03:19:17.278Z,67.66
2022-10-05T03:20:17.300Z,67.33
2022-10-05T03:21:17.273Z,66.13
2022-10-05T03:22:17.253Z,64.65
2022-10-05T03:23:17.340Z,63.76
2022-10-05T03:24:17.280Z,67.30
2022-10-05T03:25:17.270Z,65.76
2022-10-05T03:26:17.229Z,66.20
2022-10-05T03:27:17.228Z,66.53
2022-10-05T03:28:17.300Z,67.42
2022-10-05T03:29:17.209Z,68.05
2022-10-05T03:30:17.220Z,67.48
2022-10-05T03:31:17.269Z,68.07
2022-10-05T03:32:17.200Z,64.60
2022-10-05T03:33:17.168Z,63.40
2022-10-05T03:34:17.165Z,66.56
2022-10-05T03:35:17.162Z,68.03
2022-10-05T03:36:17.157Z,67.34
2022-10-05T03:37:17.171Z,67.70
2022-10-05T03:38:17.142Z,67.02
2022-10-05T03:39:17.127Z,67.81
2022-10-05T03:40:17.123Z,67.58
2022-10-05T03:41:17.120Z,64.85
2022-10-05T03:42:17.117Z,65.53
2022-10-05T03:43:17.117Z,66.92
2022-10-05T03:44:17.102Z,65.38
2022-10-05T03:45:17.076Z,66.64
2022-10-05T03:46:17.146Z,66.81
2022-10-05T03:47:17.127Z,66.83
2022-10-05T03:48:17.058Z,65.89
2022-10-05T03:49:17.078Z,65.10
2022-10-05T03:50:17.047Z,66.51
2022-10-05T03:51:17.043Z,63.75
2022-10-05T03:52:17.029Z,64.16
2022-10-05T03:53:17.039Z,66.53
2022-10-05T03:54:17.081Z,68.83
2022-10-05T03:55:17.002Z,66.88
2022-10-05T03:56:17.017Z,67.15
2022-10-05T03:57:16.976Z,69.38
2022-10-05T03:58:17.003Z,67.03
2022-10-05T03:59:16.968Z,67.54
2022-10-05T04:00:16.958Z,67.65
2022-10-05T04:01:17.078Z,62.39
2022-10-05T04:02:17.025Z,63.46
2022-10-05T04:03:16.975Z,65.11
2022-10-05T04:04:16.952Z,65.60
2022-10-05T04:05:16.921Z,67.90
2022-10-05T04:06:16.959Z,67.03
2022-10-05T04:07:16.914Z,66.81
2022-10-05T04:08:16.894Z,67.45
2022-10-05T04:09:16.916Z,68.65
2022-10-05T04:10:16.896Z,65.94
2022-10-05T04:11:16.880Z,67.78
2022-10-05T04:12:16.879Z,66.44
2022-10-05T04:13:16.894Z,67.03
2022-10-05T04:14:16.846Z,67.07
2022-10-05T04:15:19.014Z,67.68
2022-10-05T04:16:16.883Z,68.07
2022-10-05T04:17:16.881Z,67.55
2022-10-05T04:18:16.824Z,66.59
2022-10-05T04:19:16.823Z,67.52
2022-10-05T04:20:16.795Z,68.35
2022-10-05T04:21:21.342Z,65.11
2022-10-05T04:22:17.819Z,64.35
2022-10-05T04:23:16.798Z,65.65
2022-10-05T04:24:16.762Z,67.74
2022-10-05T04:25:16.858Z,66.75
2022-10-05T04:26:16.755Z,66.73
2022-10-05T04:27:16.756Z,67.77
2022-10-05T04:28:16.777Z,66.61
2022-10-05T04:29:16.748Z,64.96
2022-10-05T04:30:16.743Z,67.36
2022-10-05T04:31:16.768Z,67.42
2022-10-05T04:32:16.700Z,66.90
2022-10-05T04:33:16.705Z,66.41
2022-10-05T04:34:16.758Z,67.01
2022-10-05T04:35:16.728Z,67.62
2022-10-05T04:36:16.684Z,66.52
2022-10-05T04:37:16.687Z,68.73
2022-10-05T04:38:16.667Z,69.06
2022-10-05T04:39:16.648Z,66.89
2022-10-05T04:40:16.648Z,69.66
2022-10-05T04:41:16.675Z,68.62
2022-10-05T04:42:16.631Z,68.64
2022-10-05T04:43:16.615Z,68.17
2022-10-05T04:44:16.615Z,68.72
2022-10-05T04:45:16.605Z,67.01
2022-10-05T04:46:16.618Z,68.74
2022-10-05T04:47:16.614Z,68.78
2022-10-05T04:48:16.580Z,68.37
2022-10-05T04:49:16.571Z,67.28
2022-10-05T04:50:16.569Z,67.35
2022-10-05T04:51:16.562Z,66.90
2022-10-05T04:52:16.565Z,67.54
2022-10-05T04:53:16.551Z,66.97
2022-10-05T04:54:16.903Z,67.33
2022-10-05T04:55:16.538Z,66.60
2022-10-05T04:56:16.579Z,67.06
2022-10-05T04:57:16.630Z,68.47
2022-10-05T04:58:16.568Z,67.78
2022-10-05T04:59:17.396Z,66.79
2022-10-05T05:00:16.487Z,67.76
2022-10-05T05:01:16.558Z,68.11
2022-10-05T05:02:16.472Z,67.07
2022-10-05T05:03:16.461Z,68.15
2022-10-05T05:04:16.461Z,66.55
2022-10-05T05:05:16.545Z,68.06
2022-10-05T05:06:18.061Z,67.66
2022-10-05T05:07:16.437Z,64.59
2022-10-05T05:08:16.431Z,67.43
2022-10-05T05:09:16.420Z,66.63
2022-10-05T05:10:16.400Z,64.65
2022-10-05T05:11:20.076Z,65.01
2022-10-05T05:12:17.388Z,66.85
2022-10-05T05:13:16.379Z,67.50
2022-10-05T05:14:16.500Z,69.24
2022-10-05T05:15:16.426Z,68.36
2022-10-05T05:16:16.517Z,67.73
2022-10-05T05:17:16.386Z,68.77
2022-10-05T05:18:16.377Z,68.93
2022-10-05T05:19:16.348Z,66.81
2022-10-05T05:20:16.337Z,67.77
2022-10-05T05:21:16.328Z,66.87
2022-10-05T05:22:16.322Z,67.14
2022-10-05T05:23:16.333Z,68.16
2022-10-05T05:24:16.317Z,67.96
2022-10-05T05:25:16.286Z,67.22
2022-10-05T05:26:16.519Z,69.96
2022-10-05T05:27:16.294Z,66.80
2022-10-05T05:28:16.399Z,66.90
2022-10-05T05:29:16.266Z,68.04
2022-10-05T05:30:16.270Z,67.26
2022-10-05T05:31:16.329Z,68.79
2022-10-05T05:32:16.242Z,68.62
2022-10-05T05:33:16.249Z,67.36
2022-10-05T05:34:16.228Z,68.18
2022-10-05T05:35:16.251Z,67.72
2022-10-05T05:36:20.751Z,67.34
2022-10-05T05:37:17.201Z,68.75
2022-10-05T05:38:16.207Z,66.70
2022-10-05T05:39:16.207Z,67.62
2022-10-05T05:40:16.193Z,66.70
2022-10-05T05:41:16.201Z,67.57
2022-10-05T05:42:16.155Z,69.18
2022-10-05T05:43:16.161Z,66.75
2022-10-05T05:44:16.145Z,66.58
2022-10-05T05:45:16.207Z,68.47
2022-10-05T05:46:16.195Z,68.41
2022-10-05T05:47:16.227Z,69.33
2022-10-05T05:48:16.122Z,70.64
2022-10-05T05:49:16.146Z,68.19
2022-10-05T05:50:16.138Z,66.85
2022-10-05T05:51:16.117Z,68.41
2022-10-05T05:52:16.097Z,69.01
2022-10-05T05:53:16.104Z,69.22
2022-10-05T05:54:16.075Z,66.65
2022-10-05T05:55:16.070Z,67.84
2022-10-05T05:56:16.099Z,66.98
2022-10-05T05:57:16.063Z,68.00
2022-10-05T05:58:16.051Z,66.29
2022-10-05T05:59:16.323Z,67.71
2022-10-05T06:00:16.063Z,67.06
2022-10-05T06:01:30.928Z,68.29
2022-10-05T06:02:17.278Z,67.17
2022-10-05T06:03:16.122Z,66.70
2022-10-05T06:04:16.017Z,64.89
2022-10-05T06:05:15.989Z,66.87
2022-10-05T06:06:16.009Z,66.29
2022-10-05T06:07:15.985Z,67.63
2022-10-05T06:08:15.979Z,67.11
2022-10-05T06:09:15.978Z,67.50
2022-10-05T06:10:15.972Z,66.19
2022-10-05T06:11:15.964Z,65.12
2022-10-05T06:12:15.963Z,64.10
2022-10-05T06:13:15.969Z,64.24
2022-10-05T06:14:15.972Z,65.00
2022-10-05T06:15:15.924Z,65.80
2022-10-05T06:16:15.988Z,66.31
2022-10-05T06:17:15.905Z,65.73
2022-10-05T06:18:15.911Z,65.76
2022-10-05T06:19:15.912Z,64.33
2022-10-05T06:20:15.882Z,64.25
2022-10-05T06:21:15.909Z,64.14
2022-10-05T06:22:15.856Z,66.71
2022-10-05T06:23:15.882Z,65.90
2022-10-05T06:24:15.878Z,66.80
2022-10-05T06:25:15.850Z,66.33
2022-10-05T06:26:15.828Z,65.69
2022-10-05T06:27:15.836Z,65.28
2022-10-05T06:28:15.953Z,65.67
2022-10-05T06:29:15.818Z,68.37
2022-10-05T06:30:15.822Z,66.06
2022-10-05T06:31:15.854Z,67.02
2022-10-05T06:32:15.792Z,66.33
2022-10-05T06:33:15.787Z,68.08
2022-10-05T06:34:15.765Z,68.90
2022-10-05T06:35:15.790Z,66.82
2022-10-05T06:36:15.736Z,67.73
2022-10-05T06:37:15.738Z,67.17
2022-10-05T06:38:15.725Z,66.42
2022-10-05T06:39:15.744Z,67.00
2022-10-05T06:40:15.705Z,67.18
2022-10-05T06:41:15.740Z,67.81
2022-10-05T06:42:15.697Z,67.16
2022-10-05T06:43:15.694Z,66.27
2022-10-05T06:44:15.696Z,67.04
2022-10-05T06:45:15.689Z,67.34
2022-10-05T06:46:15.752Z,67.41
2022-10-05T06:47:15.669Z,65.63
2022-10-05T06:48:15.678Z,67.50
2022-10-05T06:49:15.649Z,68.14
2022-10-05T06:50:15.636Z,68.86
2022-10-05T06:51:15.613Z,68.87
2022-10-05T06:52:15.630Z,65.80
2022-10-05T06:53:15.626Z,66.31
2022-10-05T06:54:15.608Z,68.65
2022-10-05T06:55:15.594Z,65.83
2022-10-05T06:56:15.581Z,66.14
2022-10-05T06:57:15.596Z,65.15
2022-10-05T06:58:15.582Z,66.84
2022-10-05T06:59:15.600Z,66.63
2022-10-05T07:00:15.551Z,67.91
2022-10-05T07:01:15.648Z,67.88
2022-10-05T07:02:15.593Z,67.78
2022-10-05T07:03:15.543Z,65.85
2022-10-05T07:04:23.075Z,67.73
2022-10-05T07:05:15.549Z,69.56
2022-10-05T07:06:15.494Z,69.11
2022-10-05T07:07:15.482Z,66.55
2022-10-05T07:08:15.531Z,65.92
2022-10-05T07:09:15.485Z,66.53
2022-10-05T07:10:15.456Z,66.67
2022-10-05T07:11:15.457Z,65.82
2022-10-05T07:12:15.450Z,66.83
2022-10-05T07:13:15.424Z,68.37
2022-10-05T07:14:15.478Z,68.95
2022-10-05T07:15:15.418Z,67.50
2022-10-05T07:16:15.445Z,67.53
2022-10-05T07:17:15.408Z,69.03
2022-10-05T07:18:15.388Z,67.20
2022-10-05T07:19:15.374Z,69.35
2022-10-05T07:20:15.384Z,68.73
2022-10-05T07:21:15.348Z,68.35
2022-10-05T07:22:15.348Z,67.00
2022-10-05T07:23:15.348Z,65.93
2022-10-05T07:24:15.332Z,68.19
2022-10-05T07:25:15.315Z,66.80
2022-10-05T07:26:15.341Z,69.21
2022-10-05T07:27:15.306Z,67.80
2022-10-05T07:28:15.369Z,67.93
2022-10-05T07:29:15.297Z,67.58
2022-10-05T07:30:15.292Z,68.64
2022-10-05T07:31:15.311Z,68.96
2022-10-05T07:32:15.318Z,66.14
2022-10-05T07:33:15.262Z,65.77
2022-10-05T07:34:15.267Z,63.65
2022-10-05T07:35:15.254Z,64.19
2022-10-05T07:36:15.242Z,62.89
2022-10-05T07:37:15.228Z,63.64
2022-10-05T07:38:15.245Z,63.26
2022-10-05T07:39:15.237Z,64.15
2022-10-05T07:40:15.249Z,64.86
2022-10-05T07:41:15.189Z,64.08
2022-10-05T07:42:15.188Z,63.76
2022-10-05T07:43:15.201Z,62.42
2022-10-05T07:44:15.169Z,61.53
2022-10-05T07:45:15.182Z,62.43
2022-10-05T07:46:15.248Z,63.24
2022-10-05T07:47:15.148Z,66.08
2022-10-05T07:48:15.164Z,62.45
2022-10-05T07:49:15.143Z,64.83
2022-10-05T07:50:15.222Z,63.20
2022-10-05T07:51:15.122Z,64.73
2022-10-05T07:52:15.107Z,65.04
2022-10-05T07:53:15.125Z,64.17
2022-10-05T07:54:15.082Z,66.48
2022-10-05T07:55:15.090Z,64.85
2022-10-05T07:56:15.065Z,65.63
2022-10-05T07:57:15.062Z,64.67
2022-10-05T07:58:15.049Z,65.78
2022-10-05T07:59:15.067Z,66.70
2022-10-05T08:00:15.094Z,66.20
2022-10-05T08:01:15.044Z,65.19
2022-10-05T08:02:15.329Z,67.35
2022-10-05T08:03:15.134Z,65.14
2022-10-05T08:04:15.006Z,65.55
2022-10-05T08:05:15.005Z,65.96
2022-10-05T08:06:14.980Z,66.20
2022-10-05T08:07:15.006Z,66.04
2022-10-05T08:08:16.863Z,65.99
2022-10-05T08:09:15.008Z,64.05
2022-10-05T08:10:14.958Z,64.76
2022-10-05T08:11:14.980Z,66.03
2022-10-05T08:12:14.937Z,64.35
2022-10-05T08:13:14.919Z,66.75
2022-10-05T08:14:14.918Z,66.12
2022-10-05T08:15:14.906Z,64.99
2022-10-05T08:16:15.013Z,63.68
2022-10-05T08:17:14.911Z,67.29
2022-10-05T08:18:14.933Z,66.59
2022-10-05T08:19:14.867Z,65.06
2022-10-05T08:20:14.872Z,65.90
2022-10-05T08:21:14.884Z,66.66
2022-10-05T08:22:14.845Z,64.31
2022-10-05T08:23:14.875Z,67.32
2022-10-05T08:24:14.963Z,66.63
2022-10-05T08:25:14.834Z,67.62
2022-10-05T08:26:14.830Z,66.54
2022-10-05T08:27:14.831Z,68.25
2022-10-05T08:28:14.839Z,66.26
2022-10-05T08:29:14.908Z,66.54
2022-10-05T08:30:14.804Z,65.46
2022-10-05T08:31:14.939Z,67.40
2022-10-05T08:32:14.840Z,66.88
2022-10-05T08:33:14.765Z,68.16
2022-10-05T08:34:14.748Z,66.22
2022-10-05T08:35:14.741Z,65.13
2022-10-05T08:36:14.741Z,66.14
2022-10-05T08:37:14.782Z,68.27
2022-10-05T08:38:14.722Z,69.58
2022-10-05T08:39:14.719Z,67.48
2022-10-05T08:40:14.712Z,67.33
2022-10-05T08:41:14.692Z,66.67
2022-10-05T08:42:14.708Z,64.94
2022-10-05T08:43:14.782Z,66.64
2022-10-05T08:44:14.670Z,66.76
2022-10-05T08:45:14.664Z,65.29
2022-10-05T08:46:14.764Z,65.26
2022-10-05T08:47:14.644Z,65.03
2022-10-05T08:48:14.671Z,67.05
2022-10-05T08:49:14.627Z,64.08
2022-10-05T08:50:14.633Z,67.02
2022-10-05T08:51:14.615Z,65.80
2022-10-05T08:52:22.112Z,67.80
2022-10-05T08:53:14.618Z,67.93
2022-10-05T08:54:14.642Z,67.56
2022-10-05T08:55:14.577Z,65.93
2022-10-05T08:56:19.767Z,66.46
2022-10-05T08:57:15.560Z,64.53
2022-10-05T08:58:14.549Z,67.56
2022-10-05T08:59:14.540Z,66.35
2022-10-05T09:00:14.576Z,64.32
2022-10-05T09:01:14.563Z,66.76
2022-10-05T09:02:14.571Z,63.99
2022-10-05T09:03:14.531Z,66.54
2022-10-05T09:04:14.515Z,66.11
2022-10-05T09:05:14.516Z,66.01
2022-10-05T09:06:14.537Z,65.68
2022-10-05T09:07:14.518Z,65.45
2022-10-05T09:08:14.494Z,66.13
2022-10-05T09:09:14.462Z,66.99
2022-10-05T09:10:14.544Z,66.30
2022-10-05T09:11:14.498Z,65.21
2022-10-05T09:12:14.465Z,65.45
2022-10-05T09:13:14.428Z,66.83
2022-10-05T09:14:14.430Z,65.17
2022-10-05T09:15:25.484Z,64.66
2022-10-05T09:16:15.443Z,64.81
2022-10-05T09:17:14.442Z,66.79
2022-10-05T09:18:14.435Z,64.83
2022-10-05T09:19:14.392Z,65.73
2022-10-05T09:20:14.383Z,64.50
2022-10-05T09:21:14.386Z,66.15
2022-10-05T09:22:14.449Z,66.55
2022-10-05T09:23:14.356Z,65.33
2022-10-05T09:24:14.347Z,66.27
2022-10-05T09:25:14.364Z,64.15
2022-10-05T09:26:14.325Z,64.62
2022-10-05T09:27:14.343Z,64.82
2022-10-05T09:28:14.356Z,64.51
2022-10-05T09:29:14.305Z,64.40
2022-10-05T09:30:14.376Z,65.67
2022-10-05T09:31:14.383Z,65.05
2022-10-05T09:32:16.473Z,65.20
2022-10-05T09:33:14.273Z,63.55
2022-10-05T09:34:14.268Z,64.11
2022-10-05T09:35:14.260Z,65.77
2022-10-05T09:36:14.250Z,66.04
2022-10-05T09:37:14.237Z,62.87
2022-10-05T09:38:14.254Z,67.41
2022-10-05T09:39:14.293Z,65.00
2022-10-05T09:40:14.223Z,64.80
2022-10-05T09:41:14.215Z,63.74
2022-10-05T09:42:14.192Z,65.57
2022-10-05T09:43:14.200Z,65.99
2022-10-05T09:44:15.001Z,64.32
2022-10-05T09:45:18.973Z,64.00
2022-10-05T09:46:15.239Z,66.19
2022-10-05T09:47:14.214Z,64.29
2022-10-05T09:48:14.222Z,65.82
2022-10-05T09:49:14.248Z,64.75
2022-10-05T09:50:14.126Z,66.90
2022-10-05T09:51:14.113Z,65.41
2022-10-05T09:52:18.793Z,65.10
2022-10-05T09:53:15.118Z,65.89
2022-10-05T09:54:14.100Z,64.35
2022-10-05T09:55:14.081Z,63.83
2022-10-05T09:56:14.084Z,64.94
2022-10-05T09:57:14.067Z,65.26
2022-10-05T09:58:14.059Z,64.66
2022-10-05T09:59:14.306Z,65.20
2022-10-05T10:00:14.042Z,64.74
2022-10-05T10:01:32.789Z,65.62
2022-10-05T10:02:15.156Z,65.67
2022-10-05T10:03:14.097Z,65.31
2022-10-05T10:04:14.016Z,67.30
2022-10-05T10:05:14.020Z,65.14
2022-10-05T10:06:14.028Z,63.95
2022-10-05T10:07:13.979Z,65.30
2022-10-05T10:08:14.171Z,64.56
2022-10-05T10:09:13.966Z,64.86
2022-10-05T10:10:13.963Z,63.09
2022-10-05T10:11:13.977Z,64.01
2022-10-05T10:12:13.947Z,63.68
2022-10-05T10:13:13.937Z,64.27
2022-10-05T10:14:14.050Z,65.28
2022-10-05T10:15:13.924Z,64.52
2022-10-05T10:16:14.049Z,65.43
2022-10-05T10:17:13.920Z,65.44
2022-10-05T10:18:13.892Z,64.82
2022-10-05T10:19:13.900Z,66.67
2022-10-05T10:20:13.910Z,65.68
2022-10-05T10:21:13.882Z,64.91
2022-10-05T10:22:13.910Z,64.95
2022-10-05T10:23:13.845Z,64.61
2022-10-05T10:24:13.832Z,66.64
2022-10-05T10:25:13.836Z,64.56
2022-10-05T10:26:13.825Z,63.62
2022-10-05T10:27:13.833Z,65.55
2022-10-05T10:28:13.928Z,66.35
2022-10-05T10:29:13.841Z,64.06
2022-10-05T10:30:13.814Z,63.81
2022-10-05T10:31:13.828Z,65.71
2022-10-05T10:32:13.892Z,64.45
2022-10-05T10:33:13.821Z,64.82
2022-10-05T10:34:13.776Z,63.78
2022-10-05T10:35:13.819Z,63.54
2022-10-05T10:36:13.771Z,63.83
2022-10-05T10:37:13.727Z,63.45
2022-10-05T10:38:13.736Z,63.36
2022-10-05T10:39:13.756Z,66.18
2022-10-05T10:40:13.834Z,65.01
2022-10-05T10:41:13.762Z,63.21
2022-10-05T10:42:13.685Z,63.31
2022-10-05T10:43:13.687Z,64.11
2022-10-05T10:44:13.709Z,64.97
2022-10-05T10:45:13.687Z,64.99
2022-10-05T10:46:13.727Z,64.75
2022-10-05T10:47:13.656Z,64.47
2022-10-05T10:48:13.699Z,65.66
2022-10-05T10:49:13.629Z,63.73
2022-10-05T10:50:13.646Z,61.98
2022-10-05T10:51:13.618Z,63.46
2022-10-05T10:52:13.630Z,64.21
2022-10-05T10:53:13.660Z,65.44
2022-10-05T10:54:13.587Z,64.36
2022-10-05T10:55:13.580Z,63.21
2022-10-05T10:56:13.614Z,62.64
2022-10-05T10:57:13.564Z,64.73
2022-10-05T10:58:16.094Z,66.04
2022-10-05T10:59:13.561Z,65.39
2022-10-05T11:00:13.542Z,63.04
2022-10-05T11:01:13.624Z,64.28
2022-10-05T11:02:13.555Z,64.25
2022-10-05T11:03:13.724Z,63.57
2022-10-05T11:04:13.519Z,64.54
2022-10-05T11:05:13.498Z,63.29
2022-10-05T11:06:13.512Z,63.79
2022-10-05T11:07:13.511Z,63.09
2022-10-05T11:08:13.474Z,62.12
2022-10-05T11:09:14.621Z,63.42
2022-10-05T11:10:13.478Z,64.17
2022-10-05T11:11:13.464Z,65.14
2022-10-05T11:12:13.472Z,62.48
2022-10-05T11:13:13.452Z,63.95
2022-10-05T11:14:13.447Z,63.96
2022-10-05T11:15:13.440Z,60.83
2022-10-05T11:16:15.897Z,63.77
2022-10-05T11:17:14.433Z,65.42
2022-10-05T11:18:13.393Z,62.02
2022-10-05T11:19:13.398Z,62.99
2022-10-05T11:20:13.481Z,64.01
2022-10-05T11:21:13.385Z,65.51
2022-10-05T11:22:13.380Z,65.05
2022-10-05T11:23:13.382Z,65.45
2022-10-05T11:24:13.406Z,65.18
2022-10-05T11:25:13.357Z,65.07
2022-10-05T11:26:13.340Z,64.47
2022-10-05T11:27:13.439Z,65.88
2022-10-05T11:28:14.746Z,63.74
2022-10-05T11:29:13.366Z,65.32
2022-10-05T11:30:13.376Z,64.17
2022-10-05T11:31:13.335Z,64.07
2022-10-05T11:32:13.362Z,64.65
2022-10-05T11:33:13.376Z,62.75
2022-10-05T11:34:13.279Z,63.52
2022-10-05T11:35:13.289Z,63.86
2022-10-05T11:36:13.264Z,62.75
2022-10-05T11:37:13.254Z,63.39
2022-10-05T11:38:13.247Z,60.91
2022-10-05T11:39:13.243Z,62.39
2022-10-05T11:40:13.236Z,62.98
2022-10-05T11:41:13.244Z,64.14
2022-10-05T11:42:13.224Z,64.18
2022-10-05T11:43:13.213Z,63.67
2022-10-05T11:44:13.200Z,64.02
2022-10-05T11:45:13.191Z,63.10
2022-10-05T11:46:13.233Z,63.78
2022-10-05T11:47:13.173Z,64.02
2022-10-05T11:48:13.168Z,63.27
2022-10-05T11:49:13.163Z,60.73
2022-10-05T11:50:13.148Z,62.94
2022-10-05T11:51:13.145Z,62.10
2022-10-05T11:52:13.153Z,62.83
2022-10-05T11:53:13.127Z,64.28
2022-10-05T11:54:13.121Z,63.02
2022-10-05T11:55:13.116Z,65.33
2022-10-05T11:56:13.110Z,63.44
2022-10-05T11:57:13.104Z,63.97
2022-10-05T11:58:13.117Z,61.95
2022-10-05T11:59:13.088Z,63.45
2022-10-05T12:00:13.166Z,61.55
2022-10-05T12:01:13.078Z,62.92
2022-10-05T12:02:13.058Z,63.41
2022-10-05T12:03:13.227Z,62.48
2022-10-05T12:04:13.144Z,59.94
2022-10-05T12:05:13.038Z,64.85
2022-10-05T12:06:13.018Z,62.11
2022-10-05T12:07:13.024Z,62.66
2022-10-05T12:08:13.549Z,62.78
2022-10-05T12:09:13.056Z,60.46
2022-10-05T12:10:13.112Z,61.38
2022-10-05T12:11:12.990Z,61.65
2022-10-05T12:12:13.032Z,61.54
2022-10-05T12:13:13.054Z,63.28
2022-10-05T12:14:12.965Z,62.14
2022-10-05T12:15:12.959Z,61.51
2022-10-05T12:16:12.980Z,61.60
2022-10-05T12:17:12.940Z,64.37
2022-10-05T12:18:12.950Z,64.55
2022-10-05T12:19:12.930Z,63.50
2022-10-05T12:20:12.962Z,63.50
2022-10-05T12:21:12.922Z,63.82
2022-10-05T12:22:12.903Z,64.72
2022-10-05T12:23:12.922Z,63.62
2022-10-05T12:24:12.882Z,63.91
2022-10-05T12:25:12.902Z,64.30
2022-10-05T12:26:12.873Z,62.71
2022-10-05T12:27:12.862Z,65.05
2022-10-05T12:28:12.880Z,63.38
2022-10-05T12:29:12.847Z,64.43
2022-10-05T12:30:12.932Z,64.19
2022-10-05T12:31:12.928Z,62.25
2022-10-05T12:32:12.839Z,64.57
2022-10-05T12:33:12.823Z,63.44
2022-10-05T12:34:12.834Z,64.27
2022-10-05T12:35:12.802Z,61.11
2022-10-05T12:36:12.819Z,63.68
2022-10-05T12:37:12.790Z,64.15
2022-10-05T12:38:12.778Z,64.37
2022-10-05T12:39:12.774Z,64.87
2022-10-05T12:40:12.826Z,64.96
2022-10-05T12:41:12.780Z,64.24
2022-10-05T12:42:12.755Z,62.96
2022-10-05T12:43:12.734Z,64.52
2022-10-05T12:44:12.727Z,63.69
2022-10-05T12:45:12.719Z,63.58
2022-10-05T12:46:12.745Z,63.48
2022-10-05T12:47:12.728Z,65.38
2022-10-05T12:48:12.698Z,65.31
2022-10-05T12:49:12.801Z,65.35
2022-10-05T12:50:12.739Z,64.74
2022-10-05T12:51:12.680Z,64.68
2022-10-05T12:52:12.669Z,64.12